createdAt,value
2023-04-08T00:00:09.704Z,4.7
2023-04-08T00:03:10.585Z,4.7
2023-04-08T00:06:09.506Z,4.7
2023-04-08T00:09:09.481Z,4.7
2023-04-08T00:12:09.594Z,4.7
2023-04-08T00:15:09.485Z,4.7
2023-04-08T00:18:10.029Z,4.6
2023-04-08T00:21:09.471Z,4.7
2023-04-08T00:24:09.549Z,4.7
2023-04-08T00:27:09.512Z,4.7
2023-04-08T00:30:09.542Z,4.7
2023-04-08T00:33:09.678Z,4.7
2023-04-08T00:36:09.792Z,4.7
2023-04-08T00:39:09.475Z,4.6
2023-04-08T00:42:09.657Z,4.6
2023-04-08T00:45:09.491Z,4.6
2023-04-08T00:48:09.679Z,4.6
2023-04-08T00:51:09.511Z,4.5
2023-04-08T00:54:09.482Z,4.6
2023-04-08T00:57:09.572Z,4.6
2023-04-08T01:00:09.616Z,4.6
2023-04-08T01:03:10.624Z,4.6
2023-04-08T01:06:09.591Z,4.6
2023-04-08T01:09:09.694Z,4.6
2023-04-08T01:12:09.507Z,4.6
2023-04-08T01:15:09.579Z,4.6
2023-04-08T01:18:09.909Z,4.6
2023-04-08T01:21:09.612Z,4.6
2023-04-08T01:24:09.513Z,4.6
2023-04-08T01:27:09.519Z,4.6
2023-04-08T01:30:09.551Z,4.6
2023-04-08T01:33:09.782Z,4.6
2023-04-08T01:36:09.834Z,4.6
2023-04-08T01:39:09.515Z,4.6
2023-04-08T01:42:09.533Z,4.6
2023-04-08T01:45:09.494Z,4.6
2023-04-08T01:48:09.812Z,4.6
2023-04-08T01:51:09.569Z,4.6
2023-04-08T01:54:09.546Z,4.6
2023-04-08T01:57:09.528Z,4.6
2023-04-08T02:00:09.602Z,4.6
2023-04-08T02:03:10.880Z,4.6
2023-04-08T02:06:09.494Z,4.6
2023-04-08T02:09:09.517Z,4.6
2023-04-08T02:12:09.598Z,4.6
2023-04-08T02:15:09.497Z,4.6
2023-04-08T02:18:10.153Z,4.6
2023-04-08T02:21:09.506Z,4.6
2023-04-08T02:24:12.714Z,4.6
2023-04-08T02:27:09.474Z,4.6
2023-04-08T02:30:09.649Z,4.5
2023-04-08T02:33:09.754Z,4.5
2023-04-08T02:36:09.736Z,4.5
2023-04-08T02:39:09.493Z,4.5
2023-04-08T02:42:11.404Z,4.5
2023-04-08T02:45:09.488Z,4.5
2023-04-08T02:48:09.777Z,4.5
2023-04-08T02:51:09.482Z,4.5
2023-04-08T02:54:09.587Z,4.5
2023-04-08T02:57:09.464Z,4.5
2023-04-08T03:00:09.630Z,4.5
2023-04-08T03:03:10.426Z,4.6
2023-04-08T03:06:09.602Z,4.6
2023-04-08T03:09:09.492Z,4.6
2023-04-08T03:12:09.550Z,4.5
2023-04-08T03:15:09.516Z,4.5
2023-04-08T03:18:09.797Z,4.5
2023-04-08T03:21:09.559Z,4.5
2023-04-08T03:24:09.501Z,4.5
2023-04-08T03:27:09.534Z,4.5
2023-04-08T03:30:10.329Z,4.5
2023-04-08T03:33:12.038Z,4.5
2023-04-08T03:36:09.779Z,4.5
2023-04-08T03:39:09.498Z,4.5
2023-04-08T03:42:09.622Z,4.5
2023-04-08T03:45:09.554Z,4.5
2023-04-08T03:48:09.807Z,4.5
2023-04-08T03:51:09.543Z,4.5
2023-04-08T03:54:09.548Z,4.5
2023-04-08T03:57:09.544Z,4.5
2023-04-08T04:00:09.640Z,4.5
2023-04-08T04:03:10.005Z,4.5
2023-04-08T04:06:09.499Z,4.6
2023-04-08T04:09:09.569Z,4.6
2023-04-08T04:12:09.545Z,4.6
2023-04-08T04:15:09.525Z,4.6
2023-04-08T04:18:09.951Z,4.6
2023-04-08T04:21:09.573Z,4.6
2023-04-08T04:24:09.517Z,4.6
2023-04-08T04:27:09.502Z,4.6
2023-04-08T04:30:09.597Z,4.6
2023-04-08T04:33:09.799Z,4.6
2023-04-08T04:36:09.731Z,4.6
2023-04-08T04:39:09.557Z,4.6
2023-04-08T04:42:09.572Z,4.6
2023-04-08T04:45:09.651Z,4.6
2023-04-08T04:48:09.941Z,4.6
2023-04-08T04:51:09.697Z,4.6
2023-04-08T04:54:09.599Z,4.6
2023-04-08T04:57:09.511Z,4.6
2023-04-08T05:00:13.347Z,4.6
2023-04-08T05:03:10.352Z,4.6
2023-04-08T05:06:09.624Z,4.6
2023-04-08T05:09:09.573Z,4.6
2023-04-08T05:12:09.678Z,4.6
2023-04-08T05:15:09.624Z,4.6
2023-04-08T05:18:09.951Z,4.6
2023-04-08T05:21:09.620Z,4.6
2023-04-08T05:24:09.495Z,4.6
2023-04-08T05:27:09.630Z,4.5
2023-04-08T05:30:09.985Z,4.5
2023-04-08T05:33:10.199Z,4.6
2023-04-08T05:36:09.868Z,4.6
2023-04-08T05:39:12.258Z,4.6
2023-04-08T05:42:09.535Z,4.6
2023-04-08T05:45:09.587Z,4.6
2023-04-08T05:48:09.851Z,4.6
2023-04-08T05:51:09.572Z,4.6
2023-04-08T05:54:09.558Z,4.6
2023-04-08T05:57:11.431Z,4.6
2023-04-08T06:00:09.662Z,4.6
2023-04-08T06:03:11.376Z,4.6
2023-04-08T06:06:09.537Z,4.6
2023-04-08T06:09:09.636Z,4.7
2023-04-08T06:12:09.844Z,4.7
2023-04-08T06:15:09.644Z,4.7
2023-04-08T06:18:09.790Z,4.7
2023-04-08T06:21:09.540Z,4.7
2023-04-08T06:24:09.583Z,4.7
2023-04-08T06:27:09.678Z,4.7
2023-04-08T06:30:09.633Z,4.7
2023-04-08T06:33:09.917Z,4.7
2023-04-08T06:36:09.900Z,4.7
2023-04-08T06:39:09.603Z,4.8
2023-04-08T06:42:09.537Z,4.8
2023-04-08T06:45:09.666Z,4.8
2023-04-08T06:48:09.951Z,4.9
2023-04-08T06:51:09.670Z,4.9
2023-04-08T06:54:09.639Z,4.9
2023-04-08T06:57:09.781Z,4.9
2023-04-08T07:00:10.102Z,4.9
2023-04-08T07:03:10.092Z,5
2023-04-08T07:06:09.604Z,5
2023-04-08T07:09:09.552Z,5
2023-04-08T07:12:09.607Z,5.1
2023-04-08T07:15:09.589Z,5.1
2023-04-08T07:18:09.679Z,5.1
2023-04-08T07:21:09.562Z,5.1
2023-04-08T07:24:09.541Z,5.1
2023-04-08T07:27:09.631Z,5.2
2023-04-08T07:30:09.451Z,5.2
2023-04-08T07:33:10.509Z,5.2
2023-04-08T07:36:09.799Z,5.2
2023-04-08T07:39:09.634Z,5.2
2023-04-08T07:42:09.517Z,5.2
2023-04-08T07:45:09.528Z,5.2
2023-04-08T07:48:09.804Z,5.2
2023-04-08T07:51:23.218Z,5.4
2023-04-08T07:54:09.565Z,5.5
2023-04-08T07:57:09.888Z,5.6
2023-04-08T08:00:09.723Z,5.6
2023-04-08T08:03:10.206Z,5.6
2023-04-08T08:06:09.634Z,5.5
2023-04-08T08:09:09.674Z,5.5
2023-04-08T08:12:09.542Z,5.4
2023-04-08T08:15:09.632Z,5.4
2023-04-08T08:18:09.840Z,5.4
2023-04-08T08:21:09.617Z,5.4
2023-04-08T08:24:09.615Z,5.4
2023-04-08T08:27:09.538Z,5.4
2023-04-08T08:30:09.734Z,5.3
2023-04-08T08:33:10.001Z,5.4
2023-04-08T08:36:09.831Z,5.4
2023-04-08T08:39:09.637Z,5.4
2023-04-08T08:42:09.574Z,5.6
2023-04-08T08:45:09.619Z,5.5
2023-04-08T08:48:09.798Z,5.4
2023-04-08T08:51:09.584Z,5.4
2023-04-08T08:54:09.630Z,5.5
2023-04-08T08:57:09.515Z,5.6
2023-04-08T09:00:09.686Z,5.6
2023-04-08T09:03:10.901Z,5.6
2023-04-08T09:06:11.130Z,5.6
2023-04-08T09:09:09.582Z,5.6
2023-04-08T09:12:09.572Z,5.5
2023-04-08T09:15:09.566Z,5.5
2023-04-08T09:18:09.860Z,5.5
2023-04-08T09:21:09.608Z,5.6
2023-04-08T09:24:09.583Z,5.6
2023-04-08T09:27:09.499Z,5.6
2023-04-08T09:30:09.591Z,5.6
2023-04-08T09:33:09.908Z,5.7
2023-04-08T09:36:09.942Z,5.9
2023-04-08T09:39:09.583Z,5.7
2023-04-08T09:42:09.603Z,5.8
2023-04-08T09:45:09.572Z,5.9
2023-04-08T09:48:09.687Z,6
2023-04-08T09:51:09.815Z,6.1
2023-04-08T09:54:09.557Z,6.2
2023-04-08T09:57:09.673Z,6.1
2023-04-08T10:00:09.682Z,6.2
2023-04-08T10:03:11.038Z,6.2
2023-04-08T10:06:09.645Z,6.2
2023-04-08T10:09:09.779Z,6.2
2023-04-08T10:12:09.637Z,6.4
2023-04-08T10:15:09.530Z,6.5
2023-04-08T10:18:10.351Z,6.5
2023-04-08T10:21:09.668Z,6.5
2023-04-08T10:24:09.619Z,6.4
2023-04-08T10:27:09.527Z,6.4
2023-04-08T10:30:09.659Z,6.4
2023-04-08T10:33:09.702Z,6.4
2023-04-08T10:36:09.982Z,6.4
2023-04-08T10:39:09.560Z,6.5
2023-04-08T10:42:09.629Z,6.6
2023-04-08T10:45:09.517Z,6.5
2023-04-08T10:48:09.788Z,6.5
2023-04-08T10:51:09.694Z,6.6
2023-04-08T10:54:09.576Z,6.6
2023-04-08T10:57:09.546Z,6.7
2023-04-08T11:00:09.660Z,6.8
2023-04-08T11:03:11.663Z,7
2023-04-08T11:06:09.652Z,7
2023-04-08T11:09:09.567Z,7.1
2023-04-08T11:12:09.512Z,7.2
2023-04-08T11:15:09.618Z,7.2
2023-04-08T11:18:10.087Z,7.3
2023-04-08T11:21:09.531Z,7.4
2023-04-08T11:24:09.532Z,7.4
2023-04-08T11:27:09.603Z,7.3
2023-04-08T11:30:09.605Z,7.4
2023-04-08T11:33:09.977Z,7.4
2023-04-08T11:36:10.025Z,7.5
2023-04-08T11:39:09.508Z,7.5
2023-04-08T11:42:09.621Z,7.4
2023-04-08T11:45:09.534Z,7.6
2023-04-08T11:48:13.878Z,7.6
2023-04-08T11:51:09.549Z,7.7
2023-04-08T11:54:09.796Z,7.7
2023-04-08T11:57:09.641Z,7.8
2023-04-08T12:00:09.603Z,8.1
2023-04-08T12:03:10.172Z,8.2
2023-04-08T12:06:09.559Z,8.1
2023-04-08T12:09:09.599Z,8.2
2023-04-08T12:12:09.583Z,8.1
2023-04-08T12:15:09.596Z,8.2
2023-04-08T12:18:10.030Z,8.3
2023-04-08T12:21:09.547Z,8.3
2023-04-08T12:24:09.657Z,8.4
2023-04-08T12:27:09.632Z,8.4
2023-04-08T12:30:09.681Z,8.2
2023-04-08T12:33:09.916Z,8.1
2023-04-08T12:36:11.619Z,8.3
2023-04-08T12:39:09.531Z,8.1
2023-04-08T12:42:09.584Z,7.9
2023-04-08T12:45:09.573Z,7.9
2023-04-08T12:48:10.123Z,7.9
2023-04-08T12:51:09.568Z,7.8
2023-04-08T12:54:09.594Z,7.8
2023-04-08T12:57:09.616Z,7.8
2023-04-08T13:00:09.851Z,7.9
2023-04-08T13:03:10.310Z,8.1
2023-04-08T13:06:09.585Z,8.1
2023-04-08T13:09:09.704Z,8.3
2023-04-08T13:12:09.538Z,8.1
2023-04-08T13:15:09.639Z,8.1
2023-04-08T13:18:09.954Z,8
2023-04-08T13:21:09.575Z,8.1
2023-04-08T13:24:09.644Z,7.9
2023-04-08T13:27:09.545Z,8.1
2023-04-08T13:30:09.749Z,8.1
2023-04-08T13:33:10.084Z,8
2023-04-08T13:36:09.907Z,7.9
2023-04-08T13:39:09.690Z,7.7
2023-04-08T13:42:09.685Z,7.6
2023-04-08T13:45:09.615Z,7.6
2023-04-08T13:48:09.916Z,7.7
2023-04-08T13:51:09.644Z,7.9
2023-04-08T13:54:09.550Z,7.9
2023-04-08T13:57:09.596Z,8.1
2023-04-08T14:00:09.806Z,8.1
2023-04-08T14:03:09.790Z,8.3
2023-04-08T14:06:10.880Z,8.3
2023-04-08T14:09:09.555Z,8.1
2023-04-08T14:12:09.604Z,8.2
2023-04-08T14:15:09.559Z,8.1
2023-04-08T14:18:12.700Z,8.1
2023-04-08T14:21:09.580Z,8
2023-04-08T14:24:11.710Z,7.9
2023-04-08T14:27:09.545Z,7.8
2023-04-08T14:30:09.547Z,7.7
2023-04-08T14:33:10.523Z,7.9
2023-04-08T14:36:09.870Z,7.9
2023-04-08T14:39:09.574Z,7.9
2023-04-08T14:42:09.623Z,8.1
2023-04-08T14:45:09.600Z,8.2
2023-04-08T14:48:10.026Z,8.1
2023-04-08T14:51:09.534Z,7.9
2023-04-08T14:54:09.690Z,7.9
2023-04-08T14:57:09.505Z,7.9
2023-04-08T15:00:09.684Z,7.9
2023-04-08T15:03:10.492Z,7.9
2023-04-08T15:06:09.554Z,7.9
2023-04-08T15:09:09.643Z,8
2023-04-08T15:12:09.621Z,8
2023-04-08T15:15:09.639Z,8.1
2023-04-08T15:18:09.863Z,8.2
2023-04-08T15:21:09.648Z,8.3
2023-04-08T15:24:09.584Z,8.4
2023-04-08T15:27:09.548Z,8.4
2023-04-08T15:30:11.278Z,8.5
2023-04-08T15:33:09.850Z,8.4
2023-04-08T15:36:09.822Z,8.3
2023-04-08T15:39:09.622Z,8.3
2023-04-08T15:42:09.547Z,8.3
2023-04-08T15:45:09.574Z,8.3
2023-04-08T15:48:09.930Z,8.4
2023-04-08T15:51:09.916Z,8.4
2023-04-08T15:54:09.501Z,8.5
2023-04-08T15:57:09.590Z,8.6
2023-04-08T16:00:09.897Z,8.8
2023-04-08T16:03:11.236Z,8.9
2023-04-08T16:06:09.612Z,9.2
2023-04-08T16:09:09.530Z,9.3
2023-04-08T16:12:09.629Z,9.2
2023-04-08T16:15:09.652Z,9.2
2023-04-08T16:18:09.783Z,9.2
2023-04-08T16:21:09.581Z,9.1
2023-04-08T16:24:09.622Z,9
2023-04-08T16:27:09.553Z,8.8
2023-04-08T16:30:09.658Z,8.6
2023-04-08T16:33:09.666Z,8.6
2023-04-08T16:36:09.806Z,8.5
2023-04-08T16:39:09.521Z,8.3
2023-04-08T16:42:09.589Z,8.4
2023-04-08T16:45:09.546Z,8.3
2023-04-08T16:48:10.095Z,8.3
2023-04-08T16:51:09.595Z,8.3
2023-04-08T16:54:09.852Z,8.2
2023-04-08T16:57:09.598Z,8.1
2023-04-08T17:00:09.611Z,8.1
2023-04-08T17:03:10.731Z,8
2023-04-08T17:06:09.548Z,8
2023-04-08T17:09:09.560Z,7.9
2023-04-08T17:12:09.806Z,7.8
2023-04-08T17:15:09.611Z,7.8
2023-04-08T17:18:09.802Z,7.8
2023-04-08T17:21:09.544Z,7.8
2023-04-08T17:24:09.630Z,7.8
2023-04-08T17:27:09.594Z,7.7
2023-04-08T17:30:11.596Z,7.6
2023-04-08T17:33:09.712Z,7.6
2023-04-08T17:36:09.852Z,7.5
2023-04-08T17:39:09.570Z,7.4
2023-04-08T17:42:09.535Z,7.4
2023-04-08T17:45:09.507Z,7.4
2023-04-08T17:48:11.864Z,7.4
2023-04-08T17:51:09.560Z,7.3
2023-04-08T17:54:09.562Z,7.2
2023-04-08T17:57:09.539Z,7.2
2023-04-08T18:00:09.629Z,7.1
2023-04-08T18:03:10.753Z,7.1
2023-04-08T18:06:09.604Z,7
2023-04-08T18:09:09.474Z,6.9
2023-04-08T18:12:09.577Z,6.9
2023-04-08T18:15:09.563Z,6.8
2023-04-08T18:18:09.655Z,6.7
2023-04-08T18:21:09.554Z,6.7
2023-04-08T18:24:11.367Z,6.5
2023-04-08T18:27:13.842Z,6.4
2023-04-08T18:30:09.553Z,6.2
2023-04-08T18:33:09.726Z,6.1
2023-04-08T18:36:09.939Z,6.1
2023-04-08T18:39:09.475Z,5.9
2023-04-08T18:42:09.527Z,5.9
2023-04-08T18:45:09.518Z,5.8
2023-04-08T18:48:09.744Z,5.7
2023-04-08T18:51:09.536Z,5.7
2023-04-08T18:54:09.538Z,5.5
2023-04-08T18:57:09.519Z,5.4
2023-04-08T19:00:09.677Z,5.3
2023-04-08T19:03:14.003Z,5.2
2023-04-08T19:06:09.517Z,5.1
2023-04-08T19:09:09.605Z,5
2023-04-08T19:12:09.632Z,4.9
2023-04-08T19:15:09.507Z,4.7
2023-04-08T19:18:09.790Z,4.6
2023-04-08T19:21:09.484Z,4.5
2023-04-08T19:24:09.502Z,4.4
2023-04-08T19:27:09.541Z,4.2
2023-04-08T19:30:09.554Z,4.1
2023-04-08T19:33:09.688Z,4
2023-04-08T19:36:09.834Z,3.8
2023-04-08T19:39:09.529Z,3.7
2023-04-08T19:42:09.509Z,3.6
2023-04-08T19:45:09.555Z,3.4
2023-04-08T19:48:09.510Z,3.3
2023-04-08T19:51:09.531Z,3.1
2023-04-08T19:54:09.494Z,2.9
2023-04-08T19:57:09.482Z,2.9
2023-04-08T20:00:09.611Z,3
2023-04-08T20:03:11.182Z,3.2
2023-04-08T20:06:09.530Z,3.2
2023-04-08T20:09:09.526Z,3
2023-04-08T20:12:09.572Z,3
2023-04-08T20:15:23.972Z,2.9
2023-04-08T20:18:09.649Z,2.9
2023-04-08T20:21:09.489Z,3.1
2023-04-08T20:24:09.616Z,3.2
2023-04-08T20:27:09.692Z,3.2
2023-04-08T20:30:09.560Z,3.4
2023-04-08T20:33:09.700Z,3.4
2023-04-08T20:36:09.641Z,3.4
2023-04-08T20:39:09.521Z,3.6
2023-04-08T20:42:09.525Z,3.6
2023-04-08T20:45:09.648Z,3.8
2023-04-08T20:48:09.910Z,3.9
2023-04-08T20:51:09.484Z,3.9
2023-04-08T20:54:09.505Z,3.8
2023-04-08T20:57:09.520Z,3.8
2023-04-08T21:00:09.646Z,3.8
2023-04-08T21:03:10.135Z,3.7
2023-04-08T21:06:09.517Z,3.7
2023-04-08T21:09:09.545Z,3.7
2023-04-08T21:12:09.498Z,3.7
2023-04-08T21:15:09.525Z,3.7
2023-04-08T21:18:09.842Z,3.6
2023-04-08T21:21:09.539Z,3.5
2023-04-08T21:24:09.529Z,3.3
2023-04-08T21:27:09.526Z,3.1
2023-04-08T21:30:09.557Z,3
2023-04-08T21:33:09.787Z,2.8
2023-04-08T21:36:09.813Z,2.6
2023-04-08T21:39:09.559Z,2.5
2023-04-08T21:42:09.554Z,2.4
2023-04-08T21:45:09.565Z,2.2
2023-04-08T21:48:09.690Z,2.1
2023-04-08T21:51:09.519Z,2.2
2023-04-08T21:54:09.486Z,2.2
2023-04-08T21:57:09.572Z,2.2
2023-04-08T22:00:09.913Z,2.2
2023-04-08T22:03:10.848Z,2.2
2023-04-08T22:06:10.877Z,2.2
2023-04-08T22:09:09.525Z,1.9
2023-04-08T22:12:09.595Z,1.6
2023-04-08T22:15:09.464Z,1.6
2023-04-08T22:18:09.752Z,1.4
2023-04-08T22:21:09.529Z,1.4
2023-04-08T22:24:09.489Z,1.4
2023-04-08T22:27:09.532Z,1.5
2023-04-08T22:30:09.545Z,1.6
2023-04-08T22:33:09.561Z,1.9
2023-04-08T22:36:09.703Z,1.9
2023-04-08T22:39:09.483Z,2.1
2023-04-08T22:42:09.532Z,2.1
2023-04-08T22:45:09.536Z,2.1
2023-04-08T22:48:09.881Z,2.2
2023-04-08T22:51:09.580Z,2.4
2023-04-08T22:54:09.539Z,2.5
2023-04-08T22:57:09.474Z,2.6
2023-04-08T23:00:13.086Z,2.7
2023-04-08T23:03:10.017Z,2.7
2023-04-08T23:06:09.515Z,2.8
2023-04-08T23:09:09.565Z,2.9
2023-04-08T23:12:09.467Z,2.9
2023-04-08T23:15:09.556Z,2.9
2023-04-08T23:18:09.544Z,2.9
2023-04-08T23:21:09.532Z,2.9
2023-04-08T23:24:09.605Z,2.9
2023-04-08T23:27:09.541Z,2.9
2023-04-08T23:30:09.580Z,2.7
2023-04-08T23:33:09.530Z,2.6
2023-04-08T23:36:09.825Z,2.4
2023-04-08T23:39:09.468Z,2.2
2023-04-08T23:42:09.525Z,2.1
2023-04-08T23:45:09.553Z,2.1
2023-04-08T23:48:12.218Z,2
2023-04-08T23:51:09.519Z,2.1
2023-04-08T23:54:09.534Z,2.2
2023-04-08T23:57:09.576Z,2.1
